Latest Coastal Weather Observations for Cape Leeuwin

IDW60701

Issued at 2:02 pm WST Monday 25 July 2016 (issued every 10 minutes, with the page automatically refreshed every 10 minutes)

About coastal observations | Map of coastal stations | Coastal observations for WA | Marine services | Other Formats
Station Details ID: 009518 Name: CAPE LEEUWIN Lat: -34.37 Lon: 115.14 Height: 13.0 m
Data from the previous 72 hours. | See also: Recent months at Cape Leeuwin
Date/Time
WST
Temp
°C
Wind Pressure Rain since
9am
mm
Weather Cloud Vis
km
Sea
Height
m
Swell
Dir  Spd
kts
Gust
kts
hPa Trend Height
m
Period
s
Dir
25/02:00pm 16.3 W 12 15 1026.1 - 0.0 - - - - - - -
25/01:30pm 16.0 W 11 13 1026.2 - 0.0 - - - - - - -
25/01:00pm 16.3 W 11 14 1026.6 - 0.0 - - - - - - -
25/12:30pm 15.7 W 10 13 1027.0 - 0.0 - - - - - - -
25/12:00pm 16.1 WSW 11 14 1027.6 - 0.0 - - - - - - -
25/11:30am 15.7 WSW 10 12 1027.9 - 0.0 - - - - - - -
25/11:00am 15.6 WSW 9 13 1028.2 - 0.0 - - - - - - -
25/10:30am 15.7 SW 11 13 1028.4 - 0.0 - - - - - - -
25/10:00am 14.7 SW 10 13 1028.5 - 0.0 - - - - - - -
25/09:30am 14.7 SW 11 14 1028.1 - 0.0 - - - - - - -
25/09:00am 13.7 SW 10 12 1027.9 - 2.2 Recent precip. - - - - - -
25/08:30am 13.5 SW 2 5 1027.7 - 2.2 - - - - - - -
25/08:00am 13.3 SW 6 9 1027.4 - 1.8 - - - - - - -
25/07:30am 12.9 SW 13 17 1027.3 - 1.8 - - - - - - -
25/07:00am 13.0 WSW 7 11 1027.0 - 1.8 - - - - - - -
25/06:30am 12.7 SW 9 13 1026.7 - 1.8 - - - - - - -
25/06:00am 12.6 S 10 13 1026.4 - 1.8 Recent precip. - - - - - -
25/05:30am 13.1 WSW 11 14 1026.3 - 1.6 - - - - - - -
25/05:00am 13.4 SW 13 19 1026.1 - 1.6 - - - - - - -
25/04:30am 13.1 WSW 11 17 1026.1 - 1.6 - - - - - - -
25/04:00am 12.6 WSW 13 16 1026.3 - 1.6 - - - - - - -
25/03:30am 12.8 SW 18 21 1026.4 - 1.6 - - - - - - -
25/03:00am 12.9 SW 13 17 1026.4 - 1.6 Recent precip. - - - - - -
25/02:30am 12.5 SSW 9 12 1026.5 - 1.6 - - - - - - -
25/02:00am 13.4 SW 14 19 1026.5 - 1.2 - - - - - - -
25/01:30am 13.0 WSW 13 16 1026.6 - 1.2 - - - - - - -
25/01:00am 13.8 SW 13 17 1026.4 - 1.2 - - - - - - -
25/12:30am 13.6 SW 14 19 1026.7 - 1.2 - - - - - - -
25/12:00am 13.4 SW 17 21 1026.8 - 1.2 - - - - - - -
 
Date/Time
WST
Temp
°C
Wind Pressure Rain since
9am
mm
Weather Cloud Vis
km
Sea
Height
m
Swell
Dir  Spd
kts
Gust
kts
hPa Trend Height
m
Period
s
Dir
24/11:30pm 13.4 SW 15 20 1026.8 - 1.2 - - - - - - -
24/11:00pm 13.5 WSW 15 19 1026.7 - 1.2 - - - - - - -
24/10:30pm 13.1 WSW 15 19 1026.7 - 1.2 - - - - - - -
24/10:00pm 12.3 WSW 13 18 1027.1 - 1.2 - - - - - - -
24/09:44pm 12.8 WSW 15 27 1027.1 - 1.2 - - - - - - -
24/09:30pm 13.2 WSW 16 20 1027.1 - 1.2 - - - - - - -
24/09:00pm 13.6 WSW 15 21 1027.1 - 1.2 - - - - - - -
24/08:30pm 13.5 WSW 17 23 1027.1 - 1.2 - - - - - - -
24/08:00pm 13.2 SW 18 24 1027.0 - 1.2 - - - - - - -
24/07:30pm 13.1 WSW 17 23 1026.8 - 1.2 - - - - - - -
24/07:00pm 13.0 WSW 18 21 1026.7 - 1.2 - - - - - - -
24/06:30pm 12.1 WSW 19 23 1026.7 - 1.2 - - - - - - -
24/06:21pm 12.2 WSW 17 23 1026.6 - 1.0 - - - - - - -
24/06:00pm 12.9 WSW 19 23 1026.3 - 0.4 - - - - - - -
24/05:30pm 12.2 WSW 12 15 1026.3 - 0.4 - - - - - - -
24/05:00pm 12.1 WSW 15 20 1026.2 - 0.4 - - - - - - -
24/04:30pm 13.5 WSW 15 19 1026.0 - 0.2 - - - - - - -
24/04:00pm 13.8 WSW 14 20 1025.9 - 0.2 - - - - - - -
24/03:30pm 13.4 WSW 12 15 1026.0 - 0.2 - - - - - - -
24/03:00pm 12.7 WSW 19 24 1026.3 - 0.2 - - - - - - -
24/02:49pm 13.5 WSW 15 26 1026.2 - 0.2 - - - - - - -
24/02:30pm 13.6 W 8 16 1026.2 - 0.2 - - - - - - -
24/02:00pm 12.1 WSW 17 20 1026.4 - 0.2 - - - - - - -
24/01:30pm 12.9 WNW 11 14 1026.5 - 0.2 - - - - - - -
24/01:00pm 13.2 W 12 15 1026.7 - 0.2 - - - - - - -
24/12:30pm 14.3 WSW 13 17 1027.0 - 0.0 - - - - - - -
24/12:00pm 13.1 WSW 16 20 1027.4 - 0.0 - - - - - - -
24/11:30am 13.1 W 9 15 1027.7 - 0.0 - - - - - - -
24/11:00am 12.9 SW 13 18 1027.9 - 0.0 - - - - - - -
24/10:30am 12.7 SSW 6 9 1028.1 - 0.0 - - - - - - -
24/10:00am 12.6 WSW 15 19 1028.1 - 0.0 - - - - - - -
24/09:30am 13.1 SW 12 16 1027.9 - 0.0 - - - - - - -
24/09:00am 12.8 WSW 12 16 1027.8 - 0.0 - - - - - - -
24/08:30am 12.6 SW 10 13 1027.6 - 0.0 - - - - - - -
24/08:00am 12.6 SW 11 16 1027.5 - 0.0 - - - - - - -
24/07:30am 12.5 SW 9 15 1027.2 - 0.0 - - - - - - -
24/07:00am 12.7 SW 12 15 1026.8 - 0.0 - - - - - - -
24/06:30am 12.6 SW 8 10 1026.4 - 0.0 - - - - - - -
24/06:00am 12.6 SW 9 16 1026.1 - 0.0 - - - - - - -
24/05:30am 12.6 WSW 12 16 1026.1 - 0.0 - - - - - - -
24/05:00am 12.3 W 8 13 1026.1 - 0.0 - - - - - - -
24/04:30am 12.7 SW 14 19 1025.9 - 0.0 - - - - - - -
24/04:00am 12.5 WSW 9 13 1026.1 - 0.0 - - - - - - -
24/03:30am 11.8 SW 13 17 1026.3 - 0.0 - - - - - - -
24/03:00am 11.7 SW 11 16 1026.3 - 0.0 - - - - - - -
24/02:30am 11.8 SSW 17 21 1026.4 - 0.0 - - - - - - -
24/02:00am 12.6 SSW 10 14 1026.3 - 0.0 - - - - - - -
24/01:30am 12.7 SW 12 16 1026.4 - 0.0 - - - - - - -
24/01:00am 12.5 S 12 15 1026.3 - 0.0 - - - - - - -
24/12:30am 12.6 SSW 12 16 1026.3 - 0.0 - - - - - - -
24/12:00am 12.1 SSW 13 16 1026.5 - 0.0 - - - - - - -
 
Date/Time
WST
Temp
°C
Wind Pressure Rain since
9am
mm
Weather Cloud Vis
km
Sea
Height
m
Swell
Dir  Spd
kts
Gust
kts
hPa Trend Height
m
Period
s
Dir
23/11:30pm 12.0 SSW 15 19 1026.7 - 0.0 - - - - - - -
23/11:00pm 12.0 SSW 13 19 1026.7 - 0.0 - - - - - - -
23/10:30pm 11.4 SSW 10 13 1026.7 - 0.0 - - - - - - -
23/10:00pm 11.4 SSW 20 25 1026.7 - 0.0 - - - - - - -
23/09:30pm 11.6 SSW 19 24 1026.5 - 0.0 - - - - - - -
23/09:00pm 12.1 S 12 16 1026.2 - 0.0 - - - - - - -
23/08:30pm 11.9 SSW 13 18 1026.0 - 0.0 - - - - - - -
23/08:00pm 12.2 SSW 15 21 1026.0 - 0.0 - - - - - - -
23/07:30pm 12.0 S 16 21 1025.8 - 0.0 - - - - - - -
23/07:00pm 12.2 S 16 21 1025.4 - 0.0 - - - - - - -
23/06:30pm 12.2 SSW 16 21 1025.1 - 0.0 - - - - - - -
23/06:00pm 11.8 SSW 18 24 1024.9 - 0.0 - - - - - - -
23/05:30pm 11.8 SSW 20 28 1024.6 - 0.0 - - - - - - -
23/05:26pm 12.0 SSW 18 28 1024.6 - 0.0 - - - - - - -
23/05:00pm 12.0 S 14 21 1024.4 - 0.0 - - - - - - -
23/04:30pm 11.9 SSW 20 24 1024.4 - 0.0 - - - - - - -
23/04:00pm 13.0 SSW 16 20 1024.0 - 0.0 - - - - - - -
23/03:30pm 12.3 SSW 17 23 1023.8 - 0.0 - - - - - - -
23/03:10pm 11.7 SSW 19 29 1023.7 - 0.0 - - - - - - -
23/03:00pm 12.4 SSW 21 29 1023.6 - 0.0 - - - - - - -
23/02:30pm 13.8 SSW 17 23 1023.5 - 0.0 - - - - - - -
23/02:00pm 12.5 SSW 18 25 1023.2 - 0.0 - - - - - - -
23/01:30pm 13.6 SW 17 22 1023.2 - 0.0 - - - - - - -
23/01:00pm 12.7 SSW 20 27 1023.3 - 0.0 - - - - - - -
23/12:30pm 13.8 SSW 20 24 1023.4 - 0.0 - - - - - - -
23/12:00pm 14.3 SW 20 26 1023.4 - 0.0 - - - - - - -
23/11:30am 13.2 SSW 23 28 1023.5 - 0.0 - - - - - - -
23/11:00am 13.6 SW 22 29 1023.2 - 0.0 - - - - - - -
23/10:30am 13.0 SW 23 30 1023.1 - 0.0 - - - - - - -
23/10:00am 13.1 SW 25 30 1022.7 - 0.0 - - - - - - -
23/09:30am 12.7 SW 27 36 1022.2 - 0.0 - - - - - - -
23/09:00am 12.2 SW 27 35 1021.9 - 2.0 Recent precip. - - - - - -
23/08:30am 11.9 SW 25 35 1021.5 - 2.0 - - - - - - -
23/08:21am 12.3 SW 25 35 1021.2 - 1.8 - - - - - - -
23/08:00am 12.7 SW 29 35 1020.8 - 1.8 - - - - - - -
23/07:50am 12.5 W 25 35 1020.8 - 1.2 - - - - - - -
23/07:30am 13.6 W 27 32 1020.3 - 0.6 - - - - - - -
23/07:00am 12.9 W 26 31 1020.3 - 0.6 - - - - - - -
23/06:47am 12.9 W 27 38 1020.4 - 0.4 - - - - - - -
23/06:30am 13.5 W 27 32 1020.2 - 0.4 - - - - - - -
23/06:00am 13.8 W 25 30 1020.4 - 0.4 - - - - - - -
23/05:30am 13.5 W 27 32 1020.4 - 0.4 - - - - - - -
23/05:00am 12.8 W 25 33 1020.6 - 0.4 - - - - - - -
23/04:49am 12.9 W 26 37 1020.6 - 0.4 - - - - - - -
23/04:30am 12.9 W 30 36 1020.7 - 0.4 - - - - - - -
23/04:00am 12.9 W 26 33 1020.9 - 0.4 - - - - - - -
23/03:30am 13.6 W 25 32 1021.1 - 0.4 - - - - - - -
23/03:00am 13.5 WNW 24 28 1021.4 - 0.4 - - - - - - -
23/02:30am 13.4 W 22 27 1021.8 - 0.4 - - - - - - -
23/02:00am 13.0 W 20 25 1021.6 - 0.4 - - - - - - -
23/01:36am 12.1 W 21 31 1022.0 - 0.4 - - - - - - -
23/01:30am 11.4 W 25 31 1022.1 - 0.4 - - - - - - -
23/01:19am 12.6 W 19 29 1022.0 - 0.4 - - - - - - -
23/01:00am 12.6 W 18 22 1022.2 - 0.4 - - - - - - -
23/12:30am 12.3 W 17 23 1022.3 - 0.4 - - - - - - -
23/12:00am 11.6 WNW 11 15 1022.7 - 0.4 - - - - - - -
 
Date/Time
WST
Temp
°C
Wind Pressure Rain since
9am
mm
Weather Cloud Vis
km
Sea
Height
m
Swell
Dir  Spd
kts
Gust
kts
hPa Trend Height
m
Period
s
Dir
22/11:37pm 12.0 W 15 25 1022.7 - 0.4 - - - - - - -
22/11:30pm 12.0 W 13 17 1022.7 - 0.4 - - - - - - -
22/11:00pm 12.1 W 12 16 1022.9 - 0.4 - - - - - - -
22/10:30pm 11.8 WSW 9 16 1023.0 - 0.4 - - - - - - -
22/10:00pm 11.8 WSW 13 15 1023.3 - 0.4 - - - - - - -
22/09:30pm 11.9 WSW 18 22 1023.4 - 0.4 - - - - - - -
22/09:00pm 11.7 WNW 13 17 1023.6 - 0.4 - - - - - - -
22/08:30pm 12.3 W 12 17 1023.6 - 0.4 - - - - - - -
22/08:00pm 11.9 WSW 7 10 1023.6 - 0.4 - - - - - - -
22/07:30pm 12.1 SW 10 15 1023.6 - 0.4 - - - - - - -
22/07:00pm 12.2 WSW 11 13 1023.5 - 0.4 - - - - - - -
22/06:30pm 12.1 W 8 11 1023.3 - 0.4 - - - - - - -
22/06:00pm 12.2 SW 11 14 1023.3 - 0.4 - - - - - - -
22/05:30pm 12.1 SW 8 11 1023.3 - 0.4 - - - - - - -
22/05:00pm 12.7 WSW 10 11 1023.3 - 0.4 - - - - - - -
22/04:30pm 12.6 SW 10 15 1023.4 - 0.4 - - - - - - -
22/04:00pm 12.7 SW 11 15 1023.4 - 0.4 - - - - - - -
22/03:30pm 13.9 WSW 11 14 1023.4 - 0.4 - - - - - - -
22/03:00pm 13.9 WSW 12 17 1023.1 - 0.4 - - - - - - -
22/02:30pm 14.2 WSW 10 15 1023.1 - 0.4 - - - - - - -

Other Formats:

Comma delimited format used in spreadsheet applications
http://www.bom.gov.au/fwo/IDW60701/IDW60701.94601.axf

JavaScript Object Notation format (JSON) in row-major order
http://www.bom.gov.au/fwo/IDW60701/IDW60701.94601.json